Time;durP1;ratioP1;P1;durP2;ratioP2;P2;SDS_P1;SDS_P2;PMS_P1;PMS_P2;Temp;Humidity;BMP_temperature;BMP_pressure;BME280_temperature;BME280_humidity;BME280_pressure;Samples;Min_cycle;Max_cycle;Signal;HPM_P1;HPM_P2
2022/05/20 00:02:36;;;;;;;;;;;;;;;;;;8410425;28;27225;-67
2022/05/20 00:06:36;;;;;;;;;;;;;;;;;;8408945;28;27179;-66
2022/05/20 00:10:36;;;;;;;;;;;;;;;;;;8406927;28;28149;-67
2022/05/20 00:14:36;;;;;;;;;;;;;;;;;;8408522;27;27404;-66
2022/05/20 00:18:37;;;;;;;;;;;;;;;;;;8409858;28;28857;-66
2022/05/20 00:22:38;;;;;;;;;;;;;;;;;;8404461;28;28722;-66
2022/05/20 00:26:38;;;;;;;;;;;;;;;;;;8411166;28;27630;-66
2022/05/20 00:30:38;;;;;;;;;;;;;;;;;;8412734;28;27228;-67
2022/05/20 00:34:39;;;;;;;;;;;;;;;;;;8404820;28;27469;-67
2022/05/20 00:38:39;;;;;;;;;;;;;;;;;;8406123;28;27378;-66
2022/05/20 00:42:39;;;;;;;;;;;;;;;;;;8408466;28;27533;-67
2022/05/20 00:46:39;;;;;;;;;;;;;;;;;;8409978;28;28893;-67
2022/05/20 00:50:39;;;;;;;;;;;;;;;;;;8415202;28;29783;-67
2022/05/20 00:54:39;;;;;;;;;;;;;;;;;;8411116;28;27381;-67
2022/05/20 00:58:40;;;;;;;;;;;;;;;;;;8408709;28;27326;-67
2022/05/20 01:02:40;;;;;;;;;;;;;;;;;;8411487;27;27412;-66
2022/05/20 01:06:40;;;;;;;;;;;;;;;;;;8404021;28;27406;-67
2022/05/20 01:10:40;;;;;;;;;;;;;;;;;;8409498;28;27934;-67
2022/05/20 01:14:40;;;;;;;;;;;;;;;;;;8412021;28;27425;-67
2022/05/20 01:18:41;;;;;;;;;;;;;;;;;;8406881;28;27260;-67
2022/05/20 01:22:41;;;;;;;;;;;;;;;;;;8410996;28;30442;-67
2022/05/20 01:26:41;;;;;;;;;;;;;;;;;;8405007;28;28609;-66
2022/05/20 01:30:41;;;;;;;;;;;;;;;;;;8412005;28;27333;-67
2022/05/20 01:34:41;;;;;;;;;;;;;;;;;;8409634;28;28615;-67
2022/05/20 01:38:41;;;;;;;;;;;;;;;;;;8405857;28;27682;-67
2022/05/20 01:42:41;;;;;;;;;;;;;;;;;;8406741;28;27416;-67
2022/05/20 01:46:41;;;;;;;;;;;;;;;;;;8408011;28;28057;-67
2022/05/20 01:50:41;;;;;;;;;;;;;;;;;;8406974;28;27871;-67
2022/05/20 01:54:42;;;;;;;;;;;;;;;;;;8409230;28;27231;-66
2022/05/20 01:58:42;;;;;;;;;;;;;;;;;;8405836;28;27446;-67
2022/05/20 02:02:42;;;;;;;;;;;;;;;;;;8408421;28;28190;-67
2022/05/20 02:06:42;;;;;;;;;;;;;;;;;;8412809;28;29344;-67
2022/05/20 02:10:42;;;;;;;;;;;;;;;;;;8407021;28;27358;-67
2022/05/20 02:14:42;;;;;;;;;;;;;;;;;;8401339;28;27610;-67
2022/05/20 02:18:42;;;;;;;;;;;;;;;;;;8409331;28;27774;-66
2022/05/20 02:22:42;;;;;;;;;;;;;;;;;;8407978;28;27809;-67
2022/05/20 02:26:43;;;;;;;;;;;;;;;;;;8406461;28;27264;-66
2022/05/20 02:30:43;;;;;;;;;;;;;;;;;;8404129;28;27479;-66
2022/05/20 02:34:43;;;;;;;;;;;;;;;;;;8406014;28;27199;-66
2022/05/20 02:38:43;;;;;;;;;;;;;;;;;;8400696;28;27875;-66
2022/05/20 02:42:43;;;;;;;;;;;;;;;;;;8405802;28;27660;-66
2022/05/20 02:46:43;;;;;;;;;;;;;;;;;;8407857;28;27399;-66
2022/05/20 02:50:43;;;;;;;;;;;;;;;;;;8402688;28;30335;-66
2022/05/20 02:54:43;;;;;;;;;;;;;;;;;;8404651;28;27611;-66
2022/05/20 03:07:22;;;;;;;;;;;;;;;;;;8402863;28;28373;-66
2022/05/20 03:11:22;;;;;;;;;;;;;;;;;;8400346;28;27570;-66
2022/05/20 03:15:22;;;;;;;;;;;;;;;;;;8406551;28;27811;-66
2022/05/20 03:19:22;;;;;;;;;;;;;;;;;;8407667;28;29264;-66
2022/05/20 03:23:22;;;;;;;;;;;;;;;;;;8404726;28;28363;-66
2022/05/20 03:27:23;;;;;;;;;;;;;;;;;;8410872;28;28131;-66
2022/05/20 03:31:23;;;;;;;;;;;;;;;;;;8409607;28;28162;-66
2022/05/20 03:35:23;;;;;;;;;;;;;;;;;;8410705;28;28668;-66
2022/05/20 03:39:24;;;;;;;;;;;;;;;;;;8412638;28;27201;-67
2022/05/20 03:43:24;;;;;;;;;;;;;;;;;;8408674;28;27587;-66
2022/05/20 03:47:24;;;;;;;;;;;;;;;;;;8415998;28;27255;-66
2022/05/20 03:51:24;;;;;;;;;;;;;;;;;;8409358;28;27368;-66
2022/05/20 03:55:24;;;;;;;;;;;;;;;;;;8407783;28;27410;-65
2022/05/20 03:59:24;;;;;;;;;;;;;;;;;;8413414;28;27568;-66
2022/05/20 04:03:24;;;;;;;;;;;;;;;;;;8409101;28;27762;-66
2022/05/20 04:07:25;;;;;;;;;;;;;;;;;;8414014;28;27328;-66
2022/05/20 04:11:25;;;;;;;;;;;;;;;;;;8412181;27;27455;-66
2022/05/20 04:15:25;;;;;;;;;;;;;;;;;;8413194;28;27610;-65
2022/05/20 04:19:25;;;;;;;;;;;;;;;;;;8409605;28;27162;-66
2022/05/20 04:23:25;;;;;;;;;;;;;;;;;;8409160;28;27173;-66
2022/05/20 04:27:27;;;;;;;;;;;;;;;;;;8408171;28;27735;-66
2022/05/20 04:31:27;;;;;;;;;;;;;;;;;;8410158;28;27405;-66
2022/05/20 04:35:29;;;;;;;;;;;;;;;;;;8412278;27;47820;-66
2022/05/20 04:39:29;;;;;;;;;;;;;;;;;;8407283;28;27901;-65
2022/05/20 04:47:48;;;;;;;;;;;;;;;;;;8407465;28;27329;-65
2022/05/20 04:51:48;;;;;;;;;;;;;;;;;;8408326;28;27391;-66
2022/05/20 04:55:48;;;;;;;;;;;;;;;;;;8406591;28;28038;-65
2022/05/20 04:59:49;;;;;;;;;;;;;;;;;;8408045;28;27180;-65
2022/05/20 05:03:49;;;;;;;;;;;;;;;;;;8409371;28;27250;-65
2022/05/20 05:07:49;;;;;;;;;;;;;;;;;;8411630;28;27153;-66
2022/05/20 05:11:49;;;;;;;;;;;;;;;;;;8412381;28;27455;-65
2022/05/20 05:15:49;;;;;;;;;;;;;;;;;;8407366;28;28266;-65
2022/05/20 05:19:49;;;;;;;;;;;;;;;;;;8410473;28;27303;-65
2022/05/20 05:23:49;;;;;;;;;;;;;;;;;;8408392;28;27315;-65
2022/05/20 05:27:49;;;;;;;;;;;;;;;;;;8413064;28;27573;-65
2022/05/20 05:31:49;;;;;;;;;;;;;;;;;;8404282;28;27477;-66
2022/05/20 05:35:50;;;;;;;;;;;;;;;;;;8404572;28;29023;-65
2022/05/20 05:39:50;;;;;;;;;;;;;;;;;;8409863;28;29272;-65
2022/05/20 05:43:50;;;;;;;;;;;;;;;;;;8408127;28;27466;-65
2022/05/20 05:47:50;;;;;;;;;;;;;;;;;;8408563;27;27406;-65
2022/05/20 05:51:50;;;;;;;;;;;;;;;;;;8408158;28;27257;-68
2022/05/20 05:55:50;;;;;;;;;;;;;;;;;;8411176;28;27993;-68
2022/05/20 05:59:50;;;;;;;;;;;;;;;;;;8404347;28;27236;-68
2022/05/20 06:03:50;;;;;;;;;;;;;;;;;;8408986;28;27376;-68
2022/05/20 06:07:53;;;;;;;;;;;;;;;;;;8413682;28;27982;-68
2022/05/20 06:11:53;;;;;;;;;;;;;;;;;;8411995;28;28089;-69
2022/05/20 06:15:55;;;;;;;;;;;;;;;;;;8409056;28;27150;-69
2022/05/20 06:19:55;;;;;;;;;;;;;;;;;;8410889;27;27965;-68
2022/05/20 06:23:55;;;;;;;;;;;;;;;;;;8406187;28;27412;-65
2022/05/20 06:27:56;;;;;;;;;;;;;;;;;;8407557;28;27900;-65
2022/05/20 06:31:56;;;;;;;;;;;;;;;;;;8402758;28;27308;-66
2022/05/20 06:40:14;;;;;;;;;;;;;;;;;;8406410;28;27665;-66
2022/05/20 06:44:15;;;;;;;;;;;;;;;;;;8405195;28;27135;-67
2022/05/20 06:48:15;;;;;;;;;;;;;;;;;;8414770;28;28301;-66
2022/05/20 06:52:15;;;;;;;;;;;;;;;;;;8409109;28;28095;-65
2022/05/20 06:56:16;;;;;;;;;;;;;;;;;;8405962;28;27951;-65
2022/05/20 07:00:16;;;;;;;;;;;;;;;;;;8409777;28;27541;-66
2022/05/20 07:04:16;;;;;;;;;;;;;;;;;;8409048;27;27267;-65
2022/05/20 07:08:16;;;;;;;;;;;;;;;;;;8411171;28;27487;-67
2022/05/20 07:12:16;;;;;;;;;;;;;;;;;;8412843;28;27754;-66
2022/05/20 07:16:16;;;;;;;;;;;;;;;;;;8413518;28;27446;-67
2022/05/20 07:20:16;;;;;;;;;;;;;;;;;;8415062;28;27464;-65
2022/05/20 07:24:16;;;;;;;;;;;;;;;;;;8412145;28;28261;-65
2022/05/20 07:28:17;;;;;;;;;;;;;;;;;;8410544;28;27254;-65
2022/05/20 07:32:17;;;;;;;;;;;;;;;;;;8415696;28;27477;-66
2022/05/20 07:36:17;;;;;;;;;;;;;;;;;;8412270;28;27911;-65
2022/05/20 07:40:17;;;;;;;;;;;;;;;;;;8409019;28;27183;-65
2022/05/20 07:44:17;;;;;;;;;;;;;;;;;;8408847;28;27425;-67
2022/05/20 07:48:17;;;;;;;;;;;;;;;;;;8409990;28;27927;-69
2022/05/20 07:56:38;;;;;;;;;;;;;;;;;;8384424;27;27642;-69
2022/05/20 08:00:38;;;;;;;;;;;;;;;;;;8411216;28;27315;-69
2022/05/20 08:04:53;;;;;;;;;;;;;;;;;;8412329;28;30252;-69
2022/05/20 08:08:54;;;;;;;;;;;;;;;;;;8409610;28;27986;-68
2022/05/20 08:12:54;;;;;;;;;;;;;;;;;;8411159;28;27892;-65
2022/05/20 08:16:54;;;;;;;;;;;;;;;;;;8405628;28;27690;-66
2022/05/20 08:20:55;;;;;;;;;;;;;;;;;;8408956;28;27636;-66
2022/05/20 08:24:57;;;;;;;;;;;;;;;;;;8408385;28;27441;-66
2022/05/20 08:28:59;;;;;;;;;;;;;;;;;;8413252;28;27399;-66
2022/05/20 08:32:59;;;;;;;;;;;;;;;;;;8406461;27;27385;-66
2022/05/20 08:36:59;;;;;;;;;;;;;;;;;;8408391;28;27514;-66
2022/05/20 08:40:59;;;;;;;;;;;;;;;;;;8408103;28;27441;-65
2022/05/20 08:44:59;;;;;;;;;;;;;;;;;;8411352;28;27597;-66
2022/05/20 08:48:59;;;;;;;;;;;;;;;;;;8407203;28;27374;-66
2022/05/20 08:53:00;;;;;;;;;;;;;;;;;;8403660;28;27984;-66
2022/05/20 08:57:00;;;;;;;;;;;;;;;;;;8410460;28;27374;-65
2022/05/20 09:01:00;;;;;;;;;;;;;;;;;;8409212;28;28374;-66
2022/05/20 09:05:00;;;;;;;;;;;;;;;;;;8409221;28;27843;-69
2022/05/20 09:09:01;;;;;;;;;;;;;;;;;;8407869;28;27454;-69
2022/05/20 09:13:01;;;;;;;;;;;;;;;;;;8406082;28;28109;-69
2022/05/20 09:17:01;;;;;;;;;;;;;;;;;;8406365;28;27763;-66
2022/05/20 09:21:01;;;;;;;;;;;;;;;;;;8411299;27;27518;-66
2022/05/20 09:25:01;;;;;;;;;;;;;;;;;;8412021;28;29082;-66
2022/05/20 09:29:01;;;;;;;;;;;;;;;;;;8409619;27;27869;-66
2022/05/20 09:33:01;;;;;;;;;;;;;;;;;;8407783;28;28684;-66
2022/05/20 09:37:02;;;;;;;;;;;;;;;;;;8411302;28;27559;-66
2022/05/20 09:41:04;;;;;;;;;;;;;;;;;;8405396;28;27388;-65
2022/05/20 09:45:04;;;;;;;;;;;;;;;;;;8409524;28;27553;-66
2022/05/20 09:49:04;;;;;;;;;;;;;;;;;;8407224;28;27209;-65
2022/05/20 09:53:04;;;;;;;;;;;;;;;;;;8402700;28;27995;-65
2022/05/20 09:57:04;;;;;;;;;;;;;;;;;;8408857;28;27224;-66
2022/05/20 10:01:04;;;;;;;;;;;;;;;;;;8407000;28;28704;-67
2022/05/20 10:05:05;;;;;;;;;;;;;;;;;;8406422;28;27682;-66
2022/05/20 10:09:05;;;;;;;;;;;;;;;;;;8408018;28;27782;-64
2022/05/20 10:13:05;;;;;;;;;;;;;;;;;;8410205;28;27730;-65
2022/05/20 10:17:05;;;;;;;;;;;;;;;;;;8410114;28;27345;-66
2022/05/20 10:21:05;;;;;;;;;;;;;;;;;;8406027;28;28958;-66
2022/05/20 10:25:05;;;;;;;;;;;;;;;;;;8407240;28;27233;-66
2022/05/20 10:33:24;;;;;;;;;;;;;;;;;;8406602;28;27201;-66
2022/05/20 10:37:24;;;;;;;;;;;;;;;;;;8401442;27;27694;-66
2022/05/20 10:41:25;;;;;;;;;;;;;;;;;;8406229;28;27209;-66
2022/05/20 10:49:44;;;;;;;;;;;;;;;;;;8406478;28;27474;-66
2022/05/20 10:53:44;;;;;;;;;;;;;;;;;;8402192;28;28262;-66
2022/05/20 10:57:44;;;;;;;;;;;;;;;;;;8404237;28;27494;-66
2022/05/20 11:01:44;;;;;;;;;;;;;;;;;;8399507;28;27411;-65
2022/05/20 11:05:44;;;;;;;;;;;;;;;;;;8404701;28;28059;-66
2022/05/20 11:09:44;;;;;;;;;;;;;;;;;;8405162;28;27419;-66
2022/05/20 11:13:45;;;;;;;;;;;;;;;;;;8408723;28;27233;-66
2022/05/20 11:17:45;;;;;;;;;;;;;;;;;;8401392;28;27332;-66
2022/05/20 11:21:45;;;;;;;;;;;;;;;;;;8397480;28;27771;-66
2022/05/20 11:25:46;;;;;;;;;;;;;;;;;;8408096;28;27222;-66
2022/05/20 11:29:46;;;;;;;;;;;;;;;;;;8390019;28;28507;-66
2022/05/20 11:33:47;;;;;;;;;;;;;;;;;;8394240;28;27827;-66
2022/05/20 11:37:47;;;;;;;;;;;;;;;;;;8394690;28;27658;-66
2022/05/20 11:41:47;;;;;;;;;;;;;;;;;;8390785;28;27960;-66
2022/05/20 11:45:48;;;;;;;;;;;;;;;;;;8395625;28;27465;-66
2022/05/20 11:49:48;;;;;;;;;;;;;;;;;;8395920;28;28092;-66
2022/05/20 11:53:48;;;;;;;;;;;;;;;;;;8401092;28;28128;-66
2022/05/20 11:57:48;;;;;;;;;;;;;;;;;;8398142;28;28793;-68
2022/05/20 12:01:48;;;;;;;;;;;;;;;;;;8393941;28;27972;-67
2022/05/20 12:05:48;;;;;;;;;;;;;;;;;;8401687;28;27759;-67
2022/05/20 12:09:48;;;;;;;;;;;;;;;;;;8397886;28;28035;-66
2022/05/20 12:13:48;;;;;;;;;;;;;;;;;;8400565;28;27705;-68
2022/05/20 12:17:48;;;;;;;;;;;;;;;;;;8401863;28;28381;-69
2022/05/20 12:26:07;;;;;;;;;;;;;;;;;;8399784;28;27583;-66
2022/05/20 12:30:07;;;;;;;;;;;;;;;;;;8393743;28;28450;-65
2022/05/20 12:34:10;;;;;;;;;;;;;;;;;;8395152;28;27427;-66
2022/05/20 12:38:10;;;;;;;;;;;;;;;;;;8397891;28;28216;-66
2022/05/20 12:42:10;;;;;;;;;;;;;;;;;;8390094;28;27815;-66
2022/05/20 12:46:10;;;;;;;;;;;;;;;;;;8388520;28;28434;-66
2022/05/20 12:50:10;;;;;;;;;;;;;;;;;;8388152;28;27486;-66
2022/05/20 12:54:10;;;;;;;;;;;;;;;;;;8390967;28;27544;-64
2022/05/20 12:58:10;;;;;;;;;;;;;;;;;;8387029;28;27916;-66
2022/05/20 13:02:10;;;;;;;;;;;;;;;;;;8385915;28;27512;-65
2022/05/20 13:06:11;;;;;;;;;;;;;;;;;;8397062;28;27602;-66
2022/05/20 13:10:11;;;;;;;;;;;;;;;;;;8390032;28;28008;-66
2022/05/20 13:14:11;;;;;;;;;;;;;;;;;;8393780;28;27839;-65
2022/05/20 13:18:12;;;;;;;;;;;;;;;;;;8393447;28;28113;-66
2022/05/20 13:22:13;;;;;;;;;;;;;;;;;;8381694;28;27612;-65
2022/05/20 13:26:13;;;;;;;;;;;;;;;;;;8392430;28;28930;-65
2022/05/20 13:30:13;;;;;;;;;;;;;;;;;;8387130;28;27443;-66
2022/05/20 13:34:14;;;;;;;;;;;;;;;;;;8393655;27;27570;-66
2022/05/20 13:38:14;;;;;;;;;;;;;;;;;;8396490;27;27929;-66
2022/05/20 13:42:15;;;;;;;;;;;;;;;;;;8386954;28;27450;-65
2022/05/20 13:50:34;;;;;;;;;;;;;;;;;;8388129;28;27468;-67
2022/05/20 13:54:34;;;;;;;;;;;;;;;;;;8395491;28;27935;-66
2022/05/20 13:58:34;;;;;;;;;;;;;;;;;;8395159;28;27377;-67
2022/05/20 14:02:34;;;;;;;;;;;;;;;;;;8390698;28;27275;-67
2022/05/20 14:06:34;;;;;;;;;;;;;;;;;;8389610;28;27861;-67
2022/05/20 14:10:34;;;;;;;;;;;;;;;;;;8384454;28;27771;-67
2022/05/20 14:14:35;;;;;;;;;;;;;;;;;;8391616;28;27839;-68
2022/05/20 14:18:36;;;;;;;;;;;;;;;;;;8398919;28;27781;-68
2022/05/20 14:22:36;;;;;;;;;;;;;;;;;;8390092;28;27542;-68
2022/05/20 14:26:36;;;;;;;;;;;;;;;;;;8399379;28;27550;-68
2022/05/20 14:30:36;;;;;;;;;;;;;;;;;;8392415;28;28038;-68
2022/05/20 14:34:36;;;;;;;;;;;;;;;;;;8397816;28;28043;-68
2022/05/20 14:38:36;;;;;;;;;;;;;;;;;;8392677;28;27923;-68
2022/05/20 14:42:36;;;;;;;;;;;;;;;;;;8385526;28;28048;-68
2022/05/20 14:50:56;;;;;;;;;;;;;;;;;;8391001;28;27935;-68
2022/05/20 14:54:56;;;;;;;;;;;;;;;;;;8393263;27;27716;-68
2022/05/20 14:58:57;;;;;;;;;;;;;;;;;;8395127;28;27508;-67
2022/05/20 15:02:57;;;;;;;;;;;;;;;;;;8391681;28;28291;-68
2022/05/20 15:06:57;;;;;;;;;;;;;;;;;;8395104;28;27254;-67
2022/05/20 15:10:57;;;;;;;;;;;;;;;;;;8390676;28;28128;-67
2022/05/20 15:14:57;;;;;;;;;;;;;;;;;;8393389;28;27626;-68
2022/05/20 15:18:57;;;;;;;;;;;;;;;;;;8392383;28;27796;-66
2022/05/20 15:22:58;;;;;;;;;;;;;;;;;;8396212;28;27878;-68
2022/05/20 15:26:58;;;;;;;;;;;;;;;;;;8394740;28;28335;-67
2022/05/20 15:35:17;;;;;;;;;;;;;;;;;;8388858;28;27913;-66
2022/05/20 15:39:17;;;;;;;;;;;;;;;;;;8395464;28;27890;-67
2022/05/20 15:43:17;;;;;;;;;;;;;;;;;;8399908;28;27839;-67
2022/05/20 15:47:17;;;;;;;;;;;;;;;;;;8398584;28;27641;-67
2022/05/20 15:51:17;;;;;;;;;;;;;;;;;;8394890;28;28128;-67
2022/05/20 15:55:18;;;;;;;;;;;;;;;;;;8397025;28;28059;-68
2022/05/20 15:59:18;;;;;;;;;;;;;;;;;;8393717;28;27737;-67
2022/05/20 16:03:22;;;;;;;;;;;;;;;;;;8394908;28;27857;-66
2022/05/20 16:07:22;;;;;;;;;;;;;;;;;;8387386;28;28066;-68
2022/05/20 16:11:22;;;;;;;;;;;;;;;;;;8395630;28;28528;-67
2022/05/20 16:15:22;;;;;;;;;;;;;;;;;;8398651;27;30735;-67
2022/05/20 16:19:22;;;;;;;;;;;;;;;;;;8395473;28;28274;-67
2022/05/20 16:23:22;;;;;;;;;;;;;;;;;;8396840;28;27676;-67
2022/05/20 16:27:23;;;;;;;;;;;;;;;;;;8395142;28;27597;-67
2022/05/20 16:31:23;;;;;;;;;;;;;;;;;;8390017;28;27545;-67
2022/05/20 16:35:23;;;;;;;;;;;;;;;;;;8396446;27;28886;-67
2022/05/20 16:39:23;;;;;;;;;;;;;;;;;;8394848;28;27857;-67
2022/05/20 16:43:23;;;;;;;;;;;;;;;;;;8394974;28;27791;-65
2022/05/20 16:47:23;;;;;;;;;;;;;;;;;;8394627;28;27992;-68
2022/05/20 16:51:23;;;;;;;;;;;;;;;;;;8392439;28;27680;-67
2022/05/20 16:55:23;;;;;;;;;;;;;;;;;;8397587;28;27221;-67
2022/05/20 17:03:42;;;;;;;;;;;;;;;;;;8396813;28;27938;-67
2022/05/20 17:07:42;;;;;;;;;;;;;;;;;;8398924;28;27716;-67
2022/05/20 17:11:43;;;;;;;;;;;;;;;;;;8393925;28;27348;-67
2022/05/20 17:15:43;;;;;;;;;;;;;;;;;;8400924;28;27573;-67
2022/05/20 17:19:43;;;;;;;;;;;;;;;;;;8391525;28;27780;-67
2022/05/20 17:28:03;;;;;;;;;;;;;;;;;;8396247;28;27363;-65
2022/05/20 17:32:03;;;;;;;;;;;;;;;;;;8393355;28;27625;-68
2022/05/20 17:36:03;;;;;;;;;;;;;;;;;;8396524;28;27424;-67
2022/05/20 17:40:03;;;;;;;;;;;;;;;;;;8394689;28;28595;-68
2022/05/20 17:44:04;;;;;;;;;;;;;;;;;;8396929;28;28013;-68
2022/05/20 17:48:04;;;;;;;;;;;;;;;;;;8399892;28;28328;-68
2022/05/20 17:52:04;;;;;;;;;;;;;;;;;;8395023;28;29038;-64
2022/05/20 17:56:04;;;;;;;;;;;;;;;;;;8401888;28;28117;-66
2022/05/20 18:00:04;;;;;;;;;;;;;;;;;;8397861;28;27324;-65
2022/05/20 18:04:04;;;;;;;;;;;;;;;;;;8397931;28;28154;-67
2022/05/20 18:08:04;;;;;;;;;;;;;;;;;;8399012;28;27595;-67
2022/05/20 18:12:14;;;;;;;;;;;;;;;;;;8396254;28;27999;-67
2022/05/20 18:16:14;;;;;;;;;;;;;;;;;;8394654;28;27280;-67
2022/05/20 18:20:14;;;;;;;;;;;;;;;;;;8390985;28;27735;-67
2022/05/20 18:24:14;;;;;;;;;;;;;;;;;;8397739;28;27913;-68
2022/05/20 18:28:14;;;;;;;;;;;;;;;;;;8394904;28;27668;-67
2022/05/20 18:32:14;;;;;;;;;;;;;;;;;;8393158;28;28542;-67
2022/05/20 18:40:33;;;;;;;;;;;;;;;;;;8391825;28;28093;-67
2022/05/20 18:44:33;;;;;;;;;;;;;;;;;;8397107;28;27774;-66
2022/05/20 18:48:34;;;;;;;;;;;;;;;;;;8395362;28;27876;-68
2022/05/20 18:52:34;;;;;;;;;;;;;;;;;;8393999;28;27471;-67
2022/05/20 18:56:34;;;;;;;;;;;;;;;;;;8398317;27;27738;-69
2022/05/20 19:00:35;;;;;;;;;;;;;;;;;;8401682;28;29776;-67
2022/05/20 19:04:35;;;;;;;;;;;;;;;;;;8404252;27;27491;-66
2022/05/20 19:08:35;;;;;;;;;;;;;;;;;;8399185;28;27837;-67
2022/05/20 19:12:36;;;;;;;;;;;;;;;;;;8397083;28;27953;-67
2022/05/20 19:16:36;;;;;;;;;;;;;;;;;;8398438;28;27501;-67
2022/05/20 19:20:36;;;;;;;;;;;;;;;;;;8393595;28;27860;-66
2022/05/20 19:24:36;;;;;;;;;;;;;;;;;;8397357;28;27946;-67
2022/05/20 19:28:36;;;;;;;;;;;;;;;;;;8401013;28;30547;-67
2022/05/20 19:32:36;;;;;;;;;;;;;;;;;;8397417;28;27721;-66
2022/05/20 19:36:36;;;;;;;;;;;;;;;;;;8398514;28;28093;-67
2022/05/20 19:40:36;;;;;;;;;;;;;;;;;;8398870;28;30103;-67
2022/05/20 19:44:37;;;;;;;;;;;;;;;;;;8403147;28;27498;-67
2022/05/20 19:48:37;;;;;;;;;;;;;;;;;;8402145;28;27411;-67
2022/05/20 19:52:37;;;;;;;;;;;;;;;;;;8401080;28;28073;-67
2022/05/20 19:56:37;;;;;;;;;;;;;;;;;;8397008;28;27569;-67
2022/05/20 20:00:50;;;;;;;;;;;;;;;;;;8394777;28;28795;-67
2022/05/20 20:04:50;;;;;;;;;;;;;;;;;;8394775;28;28122;-67
2022/05/20 20:08:50;;;;;;;;;;;;;;;;;;8395368;28;28167;-66
2022/05/20 20:12:51;;;;;;;;;;;;;;;;;;8400507;28;28286;-67
2022/05/20 20:16:51;;;;;;;;;;;;;;;;;;8397797;28;28207;-67
2022/05/20 20:20:51;;;;;;;;;;;;;;;;;;8396254;28;28062;-67
2022/05/20 20:29:13;;;;;;;;;;;;;;;;;;8391484;28;27363;-67
2022/05/20 20:33:13;;;;;;;;;;;;;;;;;;8400448;28;27627;-66
2022/05/20 20:37:14;;;;;;;;;;;;;;;;;;8395684;28;27681;-67
2022/05/20 20:41:14;;;;;;;;;;;;;;;;;;8394787;28;27723;-65
2022/05/20 20:45:14;;;;;;;;;;;;;;;;;;8397006;28;27595;-67
2022/05/20 20:49:14;;;;;;;;;;;;;;;;;;8396235;28;27303;-67
2022/05/20 20:53:16;;;;;;;;;;;;;;;;;;8397473;28;27458;-67
2022/05/20 20:57:18;;;;;;;;;;;;;;;;;;8399442;28;27853;-67
2022/05/20 21:01:18;;;;;;;;;;;;;;;;;;8394572;28;27514;-67
2022/05/20 21:05:18;;;;;;;;;;;;;;;;;;8398830;28;27493;-67
2022/05/20 21:09:18;;;;;;;;;;;;;;;;;;8393505;28;28829;-67
2022/05/20 21:13:19;;;;;;;;;;;;;;;;;;8395095;28;28514;-67
2022/05/20 21:17:19;;;;;;;;;;;;;;;;;;8397511;27;27447;-67
2022/05/20 21:21:19;;;;;;;;;;;;;;;;;;8395576;28;28140;-67
2022/05/20 21:25:19;;;;;;;;;;;;;;;;;;8395144;28;27467;-67
2022/05/20 21:29:19;;;;;;;;;;;;;;;;;;8394442;28;28240;-67
2022/05/20 21:33:19;;;;;;;;;;;;;;;;;;8397404;28;27641;-66
2022/05/20 21:37:20;;;;;;;;;;;;;;;;;;8391701;28;27308;-67
2022/05/20 21:41:20;;;;;;;;;;;;;;;;;;8396633;27;27459;-67
2022/05/20 21:45:23;;;;;;;;;;;;;;;;;;8395149;28;27235;-66
2022/05/20 21:49:23;;;;;;;;;;;;;;;;;;8394491;28;28795;-66
2022/05/20 21:53:23;;;;;;;;;;;;;;;;;;8394672;28;28647;-66
2022/05/20 21:57:24;;;;;;;;;;;;;;;;;;8393996;28;27428;-66
2022/05/20 22:10:02;;;;;;;;;;;;;;;;;;8389538;28;27311;-66
2022/05/20 22:14:03;;;;;;;;;;;;;;;;;;8391250;28;28208;-64
2022/05/20 22:18:03;;;;;;;;;;;;;;;;;;8391580;28;29195;-65
2022/05/20 22:22:03;;;;;;;;;;;;;;;;;;8395364;28;27555;-66
2022/05/20 22:26:03;;;;;;;;;;;;;;;;;;8395232;28;27517;-66
2022/05/20 22:30:03;;;;;;;;;;;;;;;;;;8391046;28;28095;-66
2022/05/20 22:34:04;;;;;;;;;;;;;;;;;;8395789;28;27575;-66
2022/05/20 22:38:05;;;;;;;;;;;;;;;;;;8396438;28;27613;-66
2022/05/20 22:42:05;;;;;;;;;;;;;;;;;;8392419;28;28191;-66
2022/05/20 22:46:05;;;;;;;;;;;;;;;;;;8392117;28;27567;-66
2022/05/20 22:50:06;;;;;;;;;;;;;;;;;;8393553;28;27824;-65
2022/05/20 22:54:06;;;;;;;;;;;;;;;;;;8394078;28;28246;-66
2022/05/20 22:58:06;;;;;;;;;;;;;;;;;;8393232;28;27444;-66
2022/05/20 23:02:06;;;;;;;;;;;;;;;;;;8389433;28;27422;-65
2022/05/20 23:06:06;;;;;;;;;;;;;;;;;;8392458;28;27709;-66
2022/05/20 23:10:06;;;;;;;;;;;;;;;;;;8387919;28;28698;-66
2022/05/20 23:14:08;;;;;;;;;;;;;;;;;;8393779;28;28086;-65
2022/05/20 23:18:09;;;;;;;;;;;;;;;;;;8393706;28;28191;-65
2022/05/20 23:22:09;;;;;;;;;;;;;;;;;;8390971;28;28342;-65
2022/05/20 23:26:09;;;;;;;;;;;;;;;;;;8392287;28;28162;-65
2022/05/20 23:30:10;;;;;;;;;;;;;;;;;;8395592;28;27451;-65
2022/05/20 23:34:10;;;;;;;;;;;;;;;;;;8392952;27;27967;-66
2022/05/20 23:38:10;;;;;;;;;;;;;;;;;;8397975;28;27655;-66
2022/05/20 23:42:10;;;;;;;;;;;;;;;;;;8390094;28;27312;-66
2022/05/20 23:46:10;;;;;;;;;;;;;;;;;;8401838;28;27440;-66
2022/05/20 23:50:10;;;;;;;;;;;;;;;;;;8397454;28;27915;-66
2022/05/20 23:54:12;;;;;;;;;;;;;;;;;;8399566;28;27638;-66
2022/05/20 23:58:12;;;;;;;;;;;;;;;;;;8396536;27;28378;-65
